Airfield :
LOGIN :

Register | Disclaimer

   EN    FR    IT 

 










Legend :    VFR   Marginal VFR   IFR   Intensive IFR   Very Intensive IFR
Visi :
Ceiling :
>= 8 km
>= 3000ft
5 to 8 km
1000 to 3000 ft
1500m to 5 km
500 to 1000 ft
800 to 1500m
200 to 500 ft
< 800m
< 200 ft
Symbols :   Thunderstorms  Fog  Heavy snow  Heavy precipitations  Wind > 20 kt
SIGMETs :     Misc.  Thunderstorms  Icing  Turbulence  Mountain Waves  Volcanic Ashes






- Airport Elevation : 26 ft
- IATA code : SYY


EGPO - Stornoway

CURRENT METAR :
  • 192350Z AUTO 36018KT 9999 FEW048/// 08/04 Q1014

EXPIRED METARs :
  • 192320Z AUTO 36018KT 9999 -RA FEW031/// BKN040/// 08/05 Q1014
  • 192250Z AUTO 01017KT 9999 SCT040/// 08/04 Q1013
  • 192220Z 01019KT 9999 VCSH FEW015 SCT024 09/05 Q1013
  • 192150Z 01021KT 9999 VCSH FEW015CB SCT024 09/06 Q1013
  • 192120Z 03021KT 9999 VCSH FEW015CB SCT024 10/06 Q1012

TAF TAF EGPO
Valid from the 20 at 00:00 until the 20 at 09:00 UTC


192258Z 2000/2009 02017KT 9999 FEW015 SCT025
PROB30
TEMPO 2000/2006 02020G30KT
ATIS : +44 1851 707 444



MET'MAP, your aeronautical weather chart ! - Copyright ORBIFLY December 2007 - Disclaimer

ORBIFLY MET'MAP TEAM :

Programming & Development : Alexandra Zaïnal
Concept & Development : Baudouin d'Aumeries
Co-Development & Prog : Marc-Olivier Méhu
Technical & hardware support : Manuel Goepfert

Contact : metmap@orbifly.com




SOURCES & CREDITS :

   NOAA